createdAt,value
2023-05-05T00:01:33.377Z,51205.69
2023-05-05T00:04:00.593Z,51169.91
2023-05-05T00:06:31.392Z,51173.88
2023-05-05T00:08:58.566Z,51175.88
2023-05-05T00:11:26.111Z,51175.88
2023-05-05T00:13:53.228Z,51171.88
2023-05-05T00:16:20.500Z,51165.91
2023-05-05T00:18:48.097Z,51175.88
2023-05-05T00:21:15.729Z,51161.94
2023-05-05T00:23:42.918Z,51175.88
2023-05-05T00:26:09.993Z,51163.94
2023-05-05T00:28:38.389Z,51148.03
2023-05-05T00:31:05.711Z,51193.75
2023-05-05T00:33:33.012Z,51197.72
2023-05-05T00:36:00.152Z,51173.88
2023-05-05T00:38:27.392Z,51161.94
2023-05-05T00:40:54.602Z,51177.84
2023-05-05T00:43:21.755Z,51171.88
2023-05-05T00:46:02.027Z,51197.72
2023-05-05T00:48:32.717Z,51173.88
2023-05-05T00:51:00.222Z,51165.91
2023-05-05T00:53:27.700Z,51161.94
2023-05-05T00:55:55.022Z,51142.06
2023-05-05T00:58:22.189Z,51179.84
2023-05-05T01:00:49.311Z,51169.91
2023-05-05T01:03:16.859Z,51175.88
2023-05-05T01:06:16.589Z,51144.06
2023-05-05T01:09:08.021Z,51161.94
2023-05-05T01:11:49.555Z,51154.00
2023-05-05T01:14:20.529Z,51138.09
2023-05-05T01:17:04.086Z,51150.03
2023-05-05T01:19:33.970Z,51167.91
2023-05-05T01:22:04.881Z,51157.97
2023-05-05T01:24:56.550Z,51148.03
2023-05-05T01:27:45.500Z,51187.78
2023-05-05T01:30:39.335Z,51163.94
2023-05-05T01:33:11.668Z,51173.88
2023-05-05T01:35:45.997Z,51140.09
2023-05-05T01:38:21.825Z,51167.91
2023-05-05T01:41:04.804Z,51159.97
2023-05-05T01:43:35.306Z,51175.88
2023-05-05T01:46:03.490Z,51169.91
2023-05-05T01:48:33.354Z,51161.94
2023-05-05T01:51:05.343Z,51142.06
2023-05-05T01:53:34.422Z,51175.88
2023-05-05T01:56:03.037Z,51154.00
2023-05-05T01:58:32.525Z,51161.94
2023-05-05T02:00:59.902Z,51140.09
2023-05-05T02:03:29.449Z,51138.09
2023-05-05T02:05:58.789Z,51167.91
2023-05-05T02:08:26.952Z,51177.84
2023-05-05T02:10:55.843Z,51150.03
2023-05-05T02:13:26.155Z,51152.00
2023-05-05T02:15:55.010Z,51154.00
2023-05-05T02:18:23.554Z,51148.03
2023-05-05T02:20:50.812Z,51138.09
2023-05-05T02:23:18.161Z,51150.03
2023-05-05T02:25:51.100Z,51161.94
2023-05-05T02:28:31.653Z,51142.06
2023-05-05T02:31:00.667Z,51140.09
2023-05-05T02:33:33.282Z,51146.03
2023-05-05T02:36:27.840Z,51157.97
2023-05-05T02:39:04.671Z,51154.00
2023-05-05T02:41:39.553Z,51138.09
2023-05-05T02:44:14.091Z,51157.97
2023-05-05T02:46:42.834Z,51140.09
2023-05-05T02:49:10.152Z,51154.00
2023-05-05T02:51:39.162Z,51144.06
2023-05-05T02:54:12.597Z,51150.03
2023-05-05T02:56:51.824Z,51157.97
2023-05-05T02:59:57.082Z,51154.00
2023-05-05T03:02:45.133Z,51146.03
2023-05-05T03:05:23.470Z,51154.00
2023-05-05T03:08:05.549Z,51167.91
2023-05-05T03:10:54.758Z,51130.13
2023-05-05T03:13:25.381Z,51157.97
2023-05-05T03:15:54.167Z,51159.97
2023-05-05T03:18:25.800Z,51157.97
2023-05-05T03:21:08.037Z,51150.03
2023-05-05T03:23:37.599Z,51163.94
2023-05-05T03:26:09.259Z,51163.94
2023-05-05T03:28:40.711Z,51150.03
2023-05-05T03:31:15.965Z,51154.00
2023-05-05T03:33:43.213Z,51159.97
2023-05-05T03:36:10.709Z,51152.00
2023-05-05T03:38:40.197Z,51161.94
2023-05-05T03:41:07.828Z,51146.03
2023-05-05T03:43:35.549Z,51142.06
2023-05-05T03:46:02.894Z,51154.00
2023-05-05T03:48:30.274Z,51169.91
2023-05-05T03:50:57.818Z,51140.09
2023-05-05T03:53:27.268Z,51163.94
2023-05-05T03:55:54.963Z,51144.06
2023-05-05T03:58:22.291Z,51144.06
2023-05-05T04:00:49.731Z,51157.97
2023-05-05T04:03:19.237Z,51148.03
2023-05-05T04:05:47.124Z,51159.97
2023-05-05T04:08:14.467Z,51154.00
2023-05-05T04:10:41.881Z,51157.97
2023-05-05T04:13:09.360Z,51154.00
2023-05-05T04:15:37.113Z,51161.94
2023-05-05T04:18:04.347Z,51175.88
2023-05-05T04:20:31.483Z,51201.72
2023-05-05T04:22:58.696Z,51163.94
2023-05-05T04:25:25.852Z,51157.97
2023-05-05T04:27:53.150Z,51140.09
2023-05-05T04:30:20.397Z,51154.00
2023-05-05T04:32:47.524Z,51189.78
2023-05-05T04:35:14.994Z,51177.84
2023-05-05T04:37:43.200Z,51152.00
2023-05-05T04:40:11.035Z,51171.88
2023-05-05T04:42:45.654Z,51193.75
2023-05-05T04:45:13.342Z,51165.91
2023-05-05T04:47:41.053Z,51163.94
2023-05-05T04:50:09.957Z,51183.81
2023-05-05T04:52:37.728Z,51195.75
2023-05-05T04:55:05.870Z,51181.81
2023-05-05T04:57:33.839Z,51171.88
2023-05-05T05:00:01.740Z,51185.81
2023-05-05T05:02:29.139Z,51181.81
2023-05-05T05:04:56.366Z,51163.94
2023-05-05T05:07:24.282Z,51171.88
2023-05-05T05:09:51.889Z,51181.81
2023-05-05T05:12:19.047Z,51209.66
2023-05-05T05:14:46.175Z,51150.03
2023-05-05T05:17:13.550Z,51209.66
2023-05-05T05:19:41.409Z,51189.78
2023-05-05T05:22:09.080Z,51189.78
2023-05-05T05:24:39.301Z,51163.94
2023-05-05T05:27:10.183Z,51195.75
2023-05-05T05:29:39.845Z,51183.81
2023-05-05T05:32:07.076Z,51181.81
2023-05-05T05:34:34.714Z,51201.72
2023-05-05T05:37:02.681Z,51177.84
2023-05-05T05:39:29.797Z,51185.81
2023-05-05T05:41:57.468Z,51205.69
2023-05-05T05:44:25.272Z,51199.72
2023-05-05T05:46:52.396Z,51193.75
2023-05-05T05:49:19.616Z,51203.69
2023-05-05T05:51:47.222Z,51201.72
2023-05-05T05:54:14.399Z,51193.75
2023-05-05T05:56:42.970Z,51215.63
2023-05-05T05:59:10.732Z,51205.69
2023-05-05T06:01:40.493Z,51211.66
2023-05-05T06:04:07.973Z,51203.69
2023-05-05T06:06:36.016Z,51211.66
2023-05-05T06:09:03.313Z,51217.59
2023-05-05T06:11:33.269Z,51239.47
2023-05-05T06:14:00.674Z,51201.72
2023-05-05T06:16:27.936Z,51213.63
2023-05-05T06:18:56.011Z,51221.59
2023-05-05T06:21:23.488Z,51219.59
2023-05-05T06:23:51.741Z,51233.50
2023-05-05T06:26:19.242Z,51247.44
2023-05-05T06:28:46.370Z,51253.41
2023-05-05T06:31:14.389Z,51243.47
2023-05-05T06:33:41.557Z,51259.34
2023-05-05T06:36:09.073Z,51235.50
2023-05-05T06:38:36.298Z,51255.38
2023-05-05T06:41:03.740Z,51239.47
2023-05-05T06:43:31.227Z,51259.34
2023-05-05T06:46:01.357Z,51257.38
2023-05-05T06:48:28.528Z,51265.31
2023-05-05T06:50:56.931Z,51253.41
2023-05-05T06:53:24.239Z,51265.31
2023-05-05T06:55:51.801Z,51269.31
2023-05-05T06:58:19.204Z,51281.22
2023-05-05T07:00:46.528Z,51301.09
2023-05-05T07:03:14.456Z,51277.25
2023-05-05T07:05:44.311Z,51297.13
2023-05-05T07:08:11.477Z,51283.22
2023-05-05T07:10:38.994Z,51311.06
2023-05-05T07:13:08.468Z,51279.25
2023-05-05T07:15:35.907Z,51307.06
2023-05-05T07:18:03.220Z,51321.00
2023-05-05T07:20:30.544Z,51321.00
2023-05-05T07:22:57.580Z,51328.94
2023-05-05T07:25:24.602Z,51319.00
2023-05-05T07:27:51.757Z,51289.19
2023-05-05T07:30:19.534Z,51305.09
2023-05-05T07:32:47.362Z,51311.06
2023-05-05T07:35:14.624Z,51348.81
2023-05-05T07:37:41.635Z,51321.00
2023-05-05T07:40:09.636Z,51346.84
2023-05-05T07:42:36.894Z,51332.91
2023-05-05T07:45:05.205Z,51322.97
2023-05-05T07:47:32.775Z,51352.78
2023-05-05T07:50:01.506Z,51356.78
2023-05-05T07:52:44.135Z,51354.78
2023-05-05T07:55:13.732Z,51344.84
2023-05-05T07:57:40.987Z,51346.84
2023-05-05T08:00:09.644Z,51362.75
2023-05-05T08:02:40.102Z,51368.69
2023-05-05T08:05:08.202Z,51368.69
2023-05-05T08:07:38.243Z,51376.66
2023-05-05T08:10:10.477Z,51382.63
2023-05-05T08:12:38.135Z,51368.69
2023-05-05T08:15:06.640Z,51378.66
2023-05-05T08:17:52.005Z,51358.75
2023-05-05T08:20:21.196Z,51374.66
2023-05-05T08:22:48.317Z,51384.59
2023-05-05T08:25:15.477Z,51380.63
2023-05-05T08:27:46.009Z,51374.66
2023-05-05T08:30:13.690Z,51414.44
2023-05-05T08:32:40.875Z,51384.59
2023-05-05T08:35:09.045Z,51408.47
2023-05-05T08:37:36.520Z,51388.59
2023-05-05T08:40:04.687Z,51432.31
2023-05-05T08:42:36.967Z,51404.50
2023-05-05T08:45:10.420Z,51444.25
2023-05-05T08:47:39.332Z,51430.34
2023-05-05T08:50:10.437Z,51446.25
2023-05-05T08:52:49.196Z,51422.38
2023-05-05T08:55:28.138Z,51416.41
2023-05-05T08:57:57.928Z,51448.22
2023-05-05T09:00:27.256Z,51452.19
2023-05-05T09:02:59.586Z,51462.16
2023-05-05T09:05:27.549Z,51464.13
2023-05-05T09:07:54.752Z,51458.16
2023-05-05T09:10:21.984Z,51484.00
2023-05-05T09:12:51.212Z,51474.06
2023-05-05T09:15:18.602Z,51491.97
2023-05-05T09:17:47.038Z,51488.00
2023-05-05T09:20:15.537Z,51458.16
2023-05-05T09:22:46.269Z,51482.03
2023-05-05T09:25:15.683Z,51478.03
2023-05-05T09:27:49.263Z,51478.03
2023-05-05T09:30:26.178Z,51484.00
2023-05-05T09:32:55.295Z,51489.97
2023-05-05T09:35:23.530Z,51491.97
2023-05-05T09:37:50.888Z,51480.03
2023-05-05T09:40:19.277Z,51472.09
2023-05-05T09:42:47.359Z,51482.03
2023-05-05T09:45:20.595Z,51491.97
2023-05-05T09:47:48.888Z,51480.03
2023-05-05T09:50:20.283Z,51501.91
2023-05-05T09:53:02.417Z,51484.00
2023-05-05T09:55:33.081Z,51486.00
2023-05-05T09:58:30.906Z,51489.97
2023-05-05T10:00:59.130Z,51517.81
2023-05-05T10:03:26.646Z,51464.13
2023-05-05T10:05:56.800Z,51482.03
2023-05-05T10:08:31.584Z,51519.81
2023-05-05T10:11:07.524Z,51484.00
2023-05-05T10:13:42.074Z,51503.91
2023-05-05T10:16:11.870Z,51527.75
2023-05-05T10:18:46.550Z,51507.88
2023-05-05T10:21:17.781Z,51505.88
2023-05-05T10:23:50.329Z,51495.94
2023-05-05T10:26:19.833Z,51511.84
2023-05-05T10:28:57.080Z,51517.81
2023-05-05T10:31:48.286Z,51547.63
2023-05-05T10:34:27.292Z,51547.63
2023-05-05T10:36:57.360Z,51541.66
2023-05-05T10:39:25.155Z,51535.69
2023-05-05T10:41:53.573Z,51551.63
2023-05-05T10:44:22.604Z,51515.81
2023-05-05T10:46:50.353Z,51535.69
2023-05-05T10:49:54.707Z,51541.66
2023-05-05T10:52:33.819Z,51585.41
2023-05-05T10:55:19.476Z,51593.38
2023-05-05T10:57:53.092Z,51607.28
2023-05-05T11:00:38.600Z,51611.25
2023-05-05T11:03:17.685Z,51597.34
2023-05-05T11:06:03.786Z,51595.34
2023-05-05T11:08:32.717Z,51647.03
2023-05-05T11:11:01.156Z,51651.03
2023-05-05T11:13:29.264Z,51655.00
2023-05-05T11:15:57.845Z,51658.97
2023-05-05T11:18:38.557Z,51666.94
2023-05-05T11:21:17.554Z,51655.00
2023-05-05T11:23:53.080Z,51668.91
2023-05-05T11:26:51.261Z,51710.66
2023-05-05T11:29:18.363Z,51764.34
2023-05-05T11:31:47.902Z,51730.56
2023-05-05T11:34:28.470Z,51700.72
2023-05-05T11:37:14.051Z,51692.78
2023-05-05T11:40:02.679Z,51740.50
2023-05-05T11:42:30.477Z,51778.28
2023-05-05T11:44:57.801Z,51822.00
2023-05-05T11:47:28.618Z,51845.88
2023-05-05T11:49:56.540Z,51951.25
2023-05-05T11:52:26.224Z,52018.88
2023-05-05T11:54:54.527Z,52030.78
2023-05-05T11:57:30.025Z,52207.78
2023-05-05T11:59:59.644Z,52225.66
2023-05-05T12:02:28.366Z,52364.88
2023-05-05T12:04:57.170Z,52468.28
2023-05-05T12:07:30.952Z,52448.41
2023-05-05T12:09:58.628Z,52420.56
2023-05-05T12:12:40.237Z,52454.38
2023-05-05T12:15:09.720Z,52673.13
2023-05-05T12:17:46.079Z,52887.94
2023-05-05T12:20:14.246Z,52768.59
2023-05-05T12:22:41.697Z,52506.06
2023-05-05T12:25:09.604Z,52346.97
2023-05-05T12:27:36.804Z,52207.78
2023-05-05T12:30:16.695Z,52076.53
2023-05-05T12:32:45.216Z,52048.69
2023-05-05T12:35:12.970Z,52092.44
2023-05-05T12:37:40.478Z,52064.59
2023-05-05T12:40:09.033Z,52040.75
2023-05-05T12:42:40.323Z,52012.91
2023-05-05T12:45:17.489Z,52116.31
2023-05-05T12:47:44.891Z,52245.56
2023-05-05T12:50:12.261Z,52518.00
2023-05-05T12:52:46.337Z,52623.41
2023-05-05T12:55:13.568Z,52728.81
2023-05-05T12:58:04.826Z,52685.06
2023-05-05T13:00:32.799Z,52724.84
2023-05-05T13:03:00.289Z,52876.00
2023-05-05T13:05:36.620Z,52937.66
2023-05-05T13:08:04.749Z,53186.28
2023-05-05T13:10:32.412Z,52983.41
2023-05-05T13:12:59.601Z,52856.13
2023-05-05T13:15:27.618Z,52643.31
2023-05-05T13:18:01.854Z,52599.53
2023-05-05T13:20:29.064Z,52464.31
2023-05-05T13:22:56.206Z,52384.75
2023-05-05T13:25:23.421Z,52275.38
2023-05-05T13:27:50.532Z,52339.03
2023-05-05T13:30:17.586Z,52358.91
2023-05-05T13:32:44.680Z,52352.94
2023-05-05T13:35:13.940Z,52362.88
2023-05-05T13:37:42.701Z,52299.25
2023-05-05T13:40:10.849Z,52152.09
2023-05-05T13:42:37.914Z,52104.38
2023-05-05T13:45:05.732Z,52008.94
2023-05-05T13:47:32.872Z,51953.25
2023-05-05T13:49:59.927Z,51897.56
2023-05-05T13:52:27.722Z,51863.78
2023-05-05T13:54:55.600Z,51831.97
2023-05-05T13:57:23.328Z,51883.66
2023-05-05T13:59:50.692Z,51853.81
2023-05-05T14:02:17.799Z,51885.66
2023-05-05T14:04:44.930Z,51977.09
2023-05-05T14:07:11.946Z,52134.19
2023-05-05T14:09:39.127Z,52289.31
2023-05-05T14:12:06.367Z,52325.09
2023-05-05T14:14:34.454Z,52446.41
2023-05-05T14:17:01.669Z,52464.31
2023-05-05T14:19:28.981Z,52500.09
2023-05-05T14:21:56.036Z,52466.31
2023-05-05T14:24:23.336Z,52396.69
2023-05-05T14:26:50.485Z,52333.06
2023-05-05T14:29:17.605Z,52350.97
2023-05-05T14:31:44.684Z,52372.84
2023-05-05T14:34:11.730Z,52354.94
2023-05-05T14:36:38.830Z,52323.13
2023-05-05T14:39:05.953Z,52307.22
2023-05-05T14:41:32.998Z,52231.63
2023-05-05T14:44:00.160Z,52255.50
2023-05-05T14:46:27.522Z,52269.41
2023-05-05T14:48:54.642Z,52263.47
2023-05-05T14:51:21.729Z,52219.72
2023-05-05T14:53:48.780Z,52235.63
2023-05-05T14:56:16.170Z,52350.97
2023-05-05T14:58:43.894Z,52319.13
2023-05-05T15:01:11.054Z,52114.31
2023-05-05T15:03:38.301Z,52088.47
2023-05-05T15:06:05.614Z,51985.06
2023-05-05T15:08:32.768Z,51989.03
2023-05-05T15:10:59.877Z,52028.81
2023-05-05T15:13:27.158Z,52078.53
2023-05-05T15:15:54.275Z,52040.75
2023-05-05T15:18:21.420Z,52102.38
2023-05-05T15:20:48.525Z,52086.47
2023-05-05T15:23:16.114Z,52146.13
2023-05-05T15:25:43.317Z,52146.13
2023-05-05T15:28:10.350Z,52118.28
2023-05-05T15:30:37.443Z,52098.41
2023-05-05T15:33:04.842Z,52056.66
2023-05-05T15:35:32.260Z,52124.25
2023-05-05T15:37:59.339Z,52197.84
2023-05-05T15:40:26.477Z,52237.59
2023-05-05T15:42:53.715Z,52102.38
2023-05-05T15:45:20.866Z,52042.72
2023-05-05T15:47:48.129Z,51973.13
2023-05-05T15:50:16.207Z,51957.22
2023-05-05T15:52:43.452Z,51907.50
2023-05-05T15:55:11.016Z,51859.78
2023-05-05T15:57:41.438Z,51847.88
2023-05-05T16:00:09.540Z,51808.09
2023-05-05T16:02:37.655Z,51820.03
2023-05-05T16:05:05.593Z,51784.22
2023-05-05T16:07:32.673Z,51798.16
2023-05-05T16:09:59.703Z,51760.38
2023-05-05T16:12:27.028Z,51780.25
2023-05-05T16:14:54.127Z,51770.31
2023-05-05T16:17:22.368Z,51718.63
2023-05-05T16:19:50.197Z,51732.53
2023-05-05T16:22:17.483Z,51720.59
2023-05-05T16:24:44.568Z,51710.66
2023-05-05T16:27:11.742Z,51658.97
2023-05-05T16:29:38.993Z,51666.94
2023-05-05T16:32:06.290Z,51700.72
2023-05-05T16:34:33.477Z,51678.84
2023-05-05T16:37:00.830Z,51676.88
2023-05-05T16:39:27.860Z,51655.00
2023-05-05T16:41:55.059Z,51631.13
2023-05-05T16:44:22.240Z,51629.16
2023-05-05T16:46:49.375Z,51627.16
2023-05-05T16:49:16.477Z,51617.22
2023-05-05T16:51:43.628Z,51599.31
2023-05-05T16:54:10.779Z,51581.44
2023-05-05T16:56:37.821Z,51579.44
2023-05-05T16:59:04.874Z,51569.50
2023-05-05T17:01:32.253Z,51601.31
2023-05-05T17:04:02.489Z,51557.56
2023-05-05T17:06:33.165Z,51537.69
2023-05-05T17:09:00.282Z,51557.56
2023-05-05T17:11:27.488Z,51573.47
2023-05-05T17:13:54.521Z,51565.53
2023-05-05T17:16:21.652Z,51571.50
2023-05-05T17:18:48.820Z,51535.69
2023-05-05T17:21:15.934Z,51529.75
2023-05-05T17:23:42.957Z,51527.75
2023-05-05T17:26:10.053Z,51543.66
2023-05-05T17:28:37.488Z,51545.66
2023-05-05T17:31:04.567Z,51543.66
2023-05-05T17:33:31.716Z,51519.81
2023-05-05T17:35:58.818Z,51499.91
2023-05-05T17:38:25.931Z,51511.84
2023-05-05T17:40:53.088Z,51519.81
2023-05-05T17:43:20.134Z,51531.72
2023-05-05T17:45:47.197Z,51511.84
2023-05-05T17:48:14.281Z,51460.16
2023-05-05T17:50:43.119Z,51527.75
2023-05-05T17:53:10.772Z,51499.91
2023-05-05T17:55:38.002Z,51495.94
2023-05-05T17:58:05.097Z,51533.72
2023-05-05T18:00:32.207Z,51482.03
2023-05-05T18:03:01.001Z,51480.03
2023-05-05T18:05:28.383Z,51464.13
2023-05-05T18:07:55.526Z,51478.03
2023-05-05T18:10:23.309Z,51456.19
2023-05-05T18:12:50.377Z,51446.25
2023-05-05T18:15:17.643Z,51466.13
2023-05-05T18:17:44.945Z,51442.25
2023-05-05T18:20:12.287Z,51470.09
2023-05-05T18:22:39.752Z,51446.25
2023-05-05T18:25:08.361Z,51476.06
2023-05-05T18:27:36.082Z,51462.16
2023-05-05T18:30:04.861Z,51470.09
2023-05-05T18:32:32.639Z,51442.25
2023-05-05T18:34:59.755Z,51444.25
2023-05-05T18:37:27.888Z,51464.13
2023-05-05T18:39:55.135Z,51456.19
2023-05-05T18:42:22.605Z,51444.25
2023-05-05T18:44:49.716Z,51456.19
2023-05-05T18:47:16.791Z,51464.13
2023-05-05T18:49:45.368Z,51418.41
2023-05-05T18:52:12.687Z,51430.34
2023-05-05T18:54:39.787Z,51454.19
2023-05-05T18:57:07.066Z,51454.19
2023-05-05T18:59:35.460Z,51489.97
2023-05-05T19:02:02.895Z,51422.38
2023-05-05T19:04:31.307Z,51424.38
2023-05-05T19:06:59.993Z,51420.41
2023-05-05T19:09:27.607Z,51424.38
2023-05-05T19:11:54.875Z,51418.41
2023-05-05T19:14:23.050Z,51430.34
2023-05-05T19:16:50.199Z,51442.25
2023-05-05T19:19:17.467Z,51446.25
2023-05-05T19:21:44.692Z,51416.41
2023-05-05T19:24:11.844Z,51434.31
2023-05-05T19:26:39.102Z,51430.34
2023-05-05T19:29:06.433Z,51400.50
2023-05-05T19:31:33.592Z,51424.38
2023-05-05T19:34:04.003Z,51404.50
2023-05-05T19:36:32.413Z,51444.25
2023-05-05T19:39:04.773Z,51394.53
2023-05-05T19:41:32.678Z,51420.41
2023-05-05T19:44:00.190Z,51416.41
2023-05-05T19:46:27.364Z,51410.44
2023-05-05T19:48:54.493Z,51428.34
2023-05-05T19:51:21.767Z,51404.50
2023-05-05T19:53:48.874Z,51402.50
2023-05-05T19:56:17.026Z,51402.50
2023-05-05T19:59:01.366Z,51400.50
2023-05-05T20:01:29.336Z,51414.44
2023-05-05T20:03:57.431Z,51388.59
2023-05-05T20:06:24.933Z,51426.34
2023-05-05T20:08:52.449Z,51432.31
2023-05-05T20:11:21.161Z,51408.47
2023-05-05T20:13:49.989Z,51362.75
2023-05-05T20:16:17.617Z,51402.50
2023-05-05T20:18:44.940Z,51392.56
2023-05-05T20:21:12.174Z,51394.53
2023-05-05T20:23:39.559Z,51380.63
2023-05-05T20:26:07.798Z,51384.59
2023-05-05T20:28:45.122Z,51392.56
2023-05-05T20:31:14.854Z,51390.56
2023-05-05T20:33:44.731Z,51388.59
2023-05-05T20:36:12.046Z,51390.56
2023-05-05T20:38:39.103Z,51418.41
2023-05-05T20:41:06.404Z,51368.69
2023-05-05T20:43:34.018Z,51376.66
2023-05-05T20:46:01.163Z,51390.56
2023-05-05T20:48:29.031Z,51388.59
2023-05-05T20:50:56.204Z,51386.59
2023-05-05T20:53:25.723Z,51396.53
2023-05-05T20:55:52.838Z,51378.66
2023-05-05T20:58:20.016Z,51352.78
2023-05-05T21:00:47.342Z,51384.59
2023-05-05T21:03:14.630Z,51360.75
2023-05-05T21:05:42.053Z,51386.59
2023-05-05T21:08:09.165Z,51364.72
2023-05-05T21:10:36.726Z,51362.75
2023-05-05T21:13:04.117Z,51392.56
2023-05-05T21:15:31.986Z,51380.63
2023-05-05T21:17:59.234Z,51384.59
2023-05-05T21:20:26.755Z,51378.66
2023-05-05T21:22:53.936Z,51382.63
2023-05-05T21:25:21.957Z,51376.66
2023-05-05T21:27:49.540Z,51368.69
2023-05-05T21:30:17.294Z,51370.69
2023-05-05T21:32:44.902Z,51370.69
2023-05-05T21:35:12.260Z,51370.69
2023-05-05T21:37:40.130Z,51360.75
2023-05-05T21:40:13.643Z,51378.66
2023-05-05T21:42:42.661Z,51354.78
2023-05-05T21:45:11.715Z,51380.63
2023-05-05T21:47:39.045Z,51378.66
2023-05-05T21:50:07.470Z,51382.63
2023-05-05T21:52:34.795Z,51360.75
2023-05-05T21:55:02.159Z,51364.72
2023-05-05T21:57:29.335Z,51350.81
2023-05-05T21:59:56.409Z,51356.78
2023-05-05T22:02:23.710Z,51358.75
2023-05-05T22:04:54.110Z,51344.84
2023-05-05T22:07:21.235Z,51352.78
2023-05-05T22:09:48.429Z,51338.88
2023-05-05T22:12:16.407Z,51366.72
2023-05-05T22:14:43.502Z,51344.84
2023-05-05T22:17:11.689Z,51368.69
2023-05-05T22:19:38.749Z,51364.72
2023-05-05T22:22:05.789Z,51366.72
2023-05-05T22:24:32.958Z,51354.78
2023-05-05T22:27:00.137Z,51370.69
2023-05-05T22:29:27.524Z,51356.78
2023-05-05T22:31:54.700Z,51354.78
2023-05-05T22:34:21.959Z,51350.81
2023-05-05T22:36:49.768Z,51356.78
2023-05-05T22:39:18.586Z,51358.75
2023-05-05T22:41:46.357Z,51344.84
2023-05-05T22:44:13.540Z,51354.78
2023-05-05T22:46:40.946Z,51372.69
2023-05-05T22:49:08.808Z,51346.84
2023-05-05T22:51:35.998Z,51342.84
2023-05-05T22:54:03.361Z,51376.66
2023-05-05T22:56:30.528Z,51372.69
2023-05-05T22:58:57.665Z,51340.88
2023-05-05T23:01:24.780Z,51350.81
2023-05-05T23:03:52.024Z,51368.69
2023-05-05T23:06:19.150Z,51340.88
2023-05-05T23:08:46.420Z,51344.84
2023-05-05T23:11:13.505Z,51336.91
2023-05-05T23:13:40.762Z,51348.81
2023-05-05T23:16:08.361Z,51346.84
2023-05-05T23:18:36.725Z,51362.75
2023-05-05T23:21:04.077Z,51332.91
2023-05-05T23:23:31.883Z,51366.72
2023-05-05T23:25:58.958Z,51336.91
2023-05-05T23:28:26.064Z,51332.91
2023-05-05T23:30:53.177Z,51311.06
2023-05-05T23:33:20.446Z,51352.78
2023-05-05T23:35:47.855Z,51311.06
2023-05-05T23:38:14.996Z,51317.00
2023-05-05T23:40:42.328Z,51315.03
2023-05-05T23:43:09.441Z,51340.88
2023-05-05T23:45:36.484Z,51317.00
2023-05-05T23:48:03.892Z,51326.94
2023-05-05T23:50:31.080Z,51317.00
2023-05-05T23:52:58.109Z,51340.88
2023-05-05T23:55:25.296Z,51307.06
2023-05-05T23:57:53.158Z,51336.91
